sensor_id;sensor_type;location;lat;lon;timestamp;temperature;humidity
47626;DHT22;33342;45.574;9.252;2023-02-11T00:01:14;6.00;99.90
47626;DHT22;33342;45.574;9.252;2023-02-11T00:03:42;5.90;99.90
47626;DHT22;33342;45.574;9.252;2023-02-11T00:06:10;5.90;99.90
47626;DHT22;33342;45.574;9.252;2023-02-11T00:08:38;5.90;99.90
47626;DHT22;33342;45.574;9.252;2023-02-11T00:11:05;5.80;99.90
47626;DHT22;33342;45.574;9.252;2023-02-11T00:13:32;5.80;99.90
47626;DHT22;33342;45.574;9.252;2023-02-11T00:15:59;5.80;99.90
47626;DHT22;33342;45.574;9.252;2023-02-11T00:18:31;5.80;99.90
47626;DHT22;33342;45.574;9.252;2023-02-11T00:20:58;5.80;99.90
47626;DHT22;33342;45.574;9.252;2023-02-11T00:23:25;5.90;99.90
47626;DHT22;33342;45.574;9.252;2023-02-11T00:25:52;5.90;99.90
47626;DHT22;33342;45.574;9.252;2023-02-11T00:28:19;5.90;99.90
47626;DHT22;33342;45.574;9.252;2023-02-11T00:30:53;5.90;99.90
47626;DHT22;33342;45.574;9.252;2023-02-11T00:33:20;5.90;99.90
47626;DHT22;33342;45.574;9.252;2023-02-11T00:35:48;5.90;99.90
47626;DHT22;33342;45.574;9.252;2023-02-11T00:38:16;5.90;99.90
47626;DHT22;33342;45.574;9.252;2023-02-11T00:40:43;5.90;99.90
47626;DHT22;33342;45.574;9.252;2023-02-11T00:43:10;5.90;99.90
47626;DHT22;33342;45.574;9.252;2023-02-11T00:45:37;5.90;99.90
47626;DHT22;33342;45.574;9.252;2023-02-11T00:48:04;5.90;99.90
47626;DHT22;33342;45.574;9.252;2023-02-11T00:50:31;5.90;99.90
47626;DHT22;33342;45.574;9.252;2023-02-11T00:52:58;5.90;99.90
47626;DHT22;33342;45.574;9.252;2023-02-11T00:55:25;5.90;99.90
47626;DHT22;33342;45.574;9.252;2023-02-11T00:57:54;5.90;99.90
47626;DHT22;33342;45.574;9.252;2023-02-11T01:00:21;5.90;99.90
47626;DHT22;33342;45.574;9.252;2023-02-11T01:02:48;5.80;99.90
47626;DHT22;33342;45.574;9.252;2023-02-11T01:05:15;5.80;99.90
47626;DHT22;33342;45.574;9.252;2023-02-11T01:07:42;5.80;99.90
47626;DHT22;33342;45.574;9.252;2023-02-11T01:10:09;5.80;99.90
47626;DHT22;33342;45.574;9.252;2023-02-11T01:12:37;5.70;99.90
47626;DHT22;33342;45.574;9.252;2023-02-11T01:15:04;5.70;99.90
47626;DHT22;33342;45.574;9.252;2023-02-11T01:17:33;5.70;99.90
47626;DHT22;33342;45.574;9.252;2023-02-11T01:20:11;5.70;99.90
47626;DHT22;33342;45.574;9.252;2023-02-11T01:22:39;5.60;99.90
47626;DHT22;33342;45.574;9.252;2023-02-11T01:25:07;5.60;99.90
47626;DHT22;33342;45.574;9.252;2023-02-11T01:27:35;5.60;99.90
47626;DHT22;33342;45.574;9.252;2023-02-11T01:30:04;5.60;99.90
47626;DHT22;33342;45.574;9.252;2023-02-11T01:32:31;5.60;99.90
47626;DHT22;33342;45.574;9.252;2023-02-11T01:34:58;5.60;99.90
47626;DHT22;33342;45.574;9.252;2023-02-11T01:37:25;5.60;99.90
47626;DHT22;33342;45.574;9.252;2023-02-11T01:39:52;5.60;99.90
47626;DHT22;33342;45.574;9.252;2023-02-11T01:42:22;5.60;99.90
47626;DHT22;33342;45.574;9.252;2023-02-11T01:44:51;5.60;99.90
47626;DHT22;33342;45.574;9.252;2023-02-11T01:47:19;5.60;99.90
47626;DHT22;33342;45.574;9.252;2023-02-11T01:49:54;5.50;99.90
47626;DHT22;33342;45.574;9.252;2023-02-11T01:52:29;5.40;99.90
47626;DHT22;33342;45.574;9.252;2023-02-11T01:55:07;5.40;99.90
47626;DHT22;33342;45.574;9.252;2023-02-11T01:57:58;5.30;99.90
47626;DHT22;33342;45.574;9.252;2023-02-11T02:00:37;5.30;99.90
47626;DHT22;33342;45.574;9.252;2023-02-11T02:03:09;5.30;99.90
47626;DHT22;33342;45.574;9.252;2023-02-11T02:08:24;5.20;99.90
47626;DHT22;33342;45.574;9.252;2023-02-11T02:10:55;5.20;99.90
47626;DHT22;33342;45.574;9.252;2023-02-11T02:13:24;5.20;99.90
47626;DHT22;33342;45.574;9.252;2023-02-11T02:15:55;5.20;99.90
47626;DHT22;33342;45.574;9.252;2023-02-11T02:21:55;5.20;99.90
47626;DHT22;33342;45.574;9.252;2023-02-11T02:38:36;5.10;99.90
47626;DHT22;33342;45.574;9.252;2023-02-11T02:41:10;5.10;99.90
47626;DHT22;33342;45.574;9.252;2023-02-11T02:43:58;5.10;99.90
47626;DHT22;33342;45.574;9.252;2023-02-11T02:46:43;5.10;99.90
47626;DHT22;33342;45.574;9.252;2023-02-11T02:49:15;5.10;99.90
47626;DHT22;33342;45.574;9.252;2023-02-11T02:57:15;5.10;99.90
47626;DHT22;33342;45.574;9.252;2023-02-11T03:05:17;5.00;99.90
47626;DHT22;33342;45.574;9.252;2023-02-11T03:07:58;5.00;99.90
47626;DHT22;33342;45.574;9.252;2023-02-11T03:10:33;4.90;99.90
47626;DHT22;33342;45.574;9.252;2023-02-11T03:13:02;4.90;99.90
47626;DHT22;33342;45.574;9.252;2023-02-11T03:15:33;5.00;99.90
47626;DHT22;33342;45.574;9.252;2023-02-11T03:18:03;5.00;99.90
47626;DHT22;33342;45.574;9.252;2023-02-11T03:20:35;5.00;99.90
47626;DHT22;33342;45.574;9.252;2023-02-11T03:25:51;5.10;99.90
47626;DHT22;33342;45.574;9.252;2023-02-11T03:28:35;5.10;99.90
47626;DHT22;33342;45.574;9.252;2023-02-11T03:31:33;5.10;99.90
47626;DHT22;33342;45.574;9.252;2023-02-11T03:34:10;5.10;99.90
47626;DHT22;33342;45.574;9.252;2023-02-11T03:36:41;5.10;99.90
47626;DHT22;33342;45.574;9.252;2023-02-11T03:39:34;5.10;99.90
47626;DHT22;33342;45.574;9.252;2023-02-11T03:42:03;5.10;99.90
47626;DHT22;33342;45.574;9.252;2023-02-11T03:44:36;5.10;99.90
47626;DHT22;33342;45.574;9.252;2023-02-11T03:47:07;5.00;99.90
47626;DHT22;33342;45.574;9.252;2023-02-11T03:49:37;5.00;99.90
47626;DHT22;33342;45.574;9.252;2023-02-11T03:52:06;5.10;99.90
47626;DHT22;33342;45.574;9.252;2023-02-11T03:54:34;5.10;99.90
47626;DHT22;33342;45.574;9.252;2023-02-11T03:57:01;5.00;99.90
47626;DHT22;33342;45.574;9.252;2023-02-11T03:59:29;5.10;99.90
47626;DHT22;33342;45.574;9.252;2023-02-11T04:01:56;5.00;99.90
47626;DHT22;33342;45.574;9.252;2023-02-11T04:04:25;5.00;99.90
47626;DHT22;33342;45.574;9.252;2023-02-11T04:06:52;5.00;99.90
47626;DHT22;33342;45.574;9.252;2023-02-11T04:09:19;5.00;99.90
47626;DHT22;33342;45.574;9.252;2023-02-11T04:11:46;5.00;99.90
47626;DHT22;33342;45.574;9.252;2023-02-11T04:14:13;5.00;99.90
47626;DHT22;33342;45.574;9.252;2023-02-11T04:16:40;5.00;99.90
47626;DHT22;33342;45.574;9.252;2023-02-11T04:19:07;5.00;99.90
47626;DHT22;33342;45.574;9.252;2023-02-11T04:21:34;4.90;99.90
47626;DHT22;33342;45.574;9.252;2023-02-11T04:24:01;4.90;99.90
47626;DHT22;33342;45.574;9.252;2023-02-11T04:26:28;4.90;99.90
47626;DHT22;33342;45.574;9.252;2023-02-11T04:28:55;4.90;99.90
47626;DHT22;33342;45.574;9.252;2023-02-11T04:31:22;4.90;99.90
47626;DHT22;33342;45.574;9.252;2023-02-11T04:33:49;4.90;99.90
47626;DHT22;33342;45.574;9.252;2023-02-11T04:36:16;4.90;99.90
47626;DHT22;33342;45.574;9.252;2023-02-11T04:38:43;4.90;99.90
47626;DHT22;33342;45.574;9.252;2023-02-11T04:41:10;4.90;99.90
47626;DHT22;33342;45.574;9.252;2023-02-11T04:43:37;4.90;99.90
47626;DHT22;33342;45.574;9.252;2023-02-11T04:46:04;4.90;99.90
47626;DHT22;33342;45.574;9.252;2023-02-11T04:48:31;4.90;99.90
47626;DHT22;33342;45.574;9.252;2023-02-11T04:50:58;4.90;99.90
47626;DHT22;33342;45.574;9.252;2023-02-11T04:53:25;4.90;99.90
47626;DHT22;33342;45.574;9.252;2023-02-11T04:55:52;4.90;99.90
47626;DHT22;33342;45.574;9.252;2023-02-11T04:58:20;4.90;99.90
47626;DHT22;33342;45.574;9.252;2023-02-11T05:00:47;4.90;99.90
47626;DHT22;33342;45.574;9.252;2023-02-11T05:03:14;4.90;99.90
47626;DHT22;33342;45.574;9.252;2023-02-11T05:05:42;4.90;99.90
47626;DHT22;33342;45.574;9.252;2023-02-11T05:08:10;4.90;99.90
47626;DHT22;33342;45.574;9.252;2023-02-11T05:10:37;4.80;99.90
47626;DHT22;33342;45.574;9.252;2023-02-11T05:13:04;4.80;99.90
47626;DHT22;33342;45.574;9.252;2023-02-11T05:15:31;4.80;99.90
47626;DHT22;33342;45.574;9.252;2023-02-11T05:17:58;4.80;99.90
47626;DHT22;33342;45.574;9.252;2023-02-11T05:20:25;4.80;99.90
47626;DHT22;33342;45.574;9.252;2023-02-11T05:22:52;4.70;99.90
47626;DHT22;33342;45.574;9.252;2023-02-11T05:25:19;4.70;99.90
47626;DHT22;33342;45.574;9.252;2023-02-11T05:27:46;4.70;99.90
47626;DHT22;33342;45.574;9.252;2023-02-11T05:30:13;4.70;99.90
47626;DHT22;33342;45.574;9.252;2023-02-11T05:32:40;4.70;99.90
47626;DHT22;33342;45.574;9.252;2023-02-11T05:35:07;4.70;99.90
47626;DHT22;33342;45.574;9.252;2023-02-11T05:37:35;4.70;99.90
47626;DHT22;33342;45.574;9.252;2023-02-11T05:40:02;4.70;99.90
47626;DHT22;33342;45.574;9.252;2023-02-11T05:42:29;4.70;99.90
47626;DHT22;33342;45.574;9.252;2023-02-11T05:44:57;4.70;99.90
47626;DHT22;33342;45.574;9.252;2023-02-11T05:47:24;4.70;99.90
47626;DHT22;33342;45.574;9.252;2023-02-11T05:49:51;4.70;99.90
47626;DHT22;33342;45.574;9.252;2023-02-11T05:52:20;4.60;99.90
47626;DHT22;33342;45.574;9.252;2023-02-11T05:54:48;4.60;99.90
47626;DHT22;33342;45.574;9.252;2023-02-11T05:57:15;4.60;99.90
47626;DHT22;33342;45.574;9.252;2023-02-11T05:59:42;4.70;99.90
47626;DHT22;33342;45.574;9.252;2023-02-11T06:02:11;4.60;99.90
47626;DHT22;33342;45.574;9.252;2023-02-11T06:04:38;4.70;99.90
47626;DHT22;33342;45.574;9.252;2023-02-11T06:07:05;4.60;99.90
47626;DHT22;33342;45.574;9.252;2023-02-11T06:09:32;4.70;99.90
47626;DHT22;33342;45.574;9.252;2023-02-11T06:11:59;4.60;99.90
47626;DHT22;33342;45.574;9.252;2023-02-11T06:14:26;4.70;99.90
47626;DHT22;33342;45.574;9.252;2023-02-11T06:16:53;4.60;99.90
47626;DHT22;33342;45.574;9.252;2023-02-11T06:19:20;4.60;99.90
47626;DHT22;33342;45.574;9.252;2023-02-11T06:21:47;4.60;99.90
47626;DHT22;33342;45.574;9.252;2023-02-11T06:24:14;4.60;99.90
47626;DHT22;33342;45.574;9.252;2023-02-11T06:26:50;4.60;99.90
47626;DHT22;33342;45.574;9.252;2023-02-11T06:29:17;4.50;99.90
47626;DHT22;33342;45.574;9.252;2023-02-11T06:31:44;4.50;99.90
47626;DHT22;33342;45.574;9.252;2023-02-11T06:34:11;4.40;99.90
47626;DHT22;33342;45.574;9.252;2023-02-11T06:36:39;4.40;99.90
47626;DHT22;33342;45.574;9.252;2023-02-11T06:39:07;4.30;99.90
47626;DHT22;33342;45.574;9.252;2023-02-11T06:41:34;4.30;99.90
47626;DHT22;33342;45.574;9.252;2023-02-11T06:44:01;4.20;99.90
47626;DHT22;33342;45.574;9.252;2023-02-11T06:46:28;4.30;99.90
47626;DHT22;33342;45.574;9.252;2023-02-11T06:48:55;4.20;99.90
47626;DHT22;33342;45.574;9.252;2023-02-11T06:51:22;4.20;99.90
47626;DHT22;33342;45.574;9.252;2023-02-11T06:53:49;4.20;99.90
47626;DHT22;33342;45.574;9.252;2023-02-11T06:56:21;4.20;99.90
47626;DHT22;33342;45.574;9.252;2023-02-11T06:58:52;4.10;99.90
47626;DHT22;33342;45.574;9.252;2023-02-11T07:01:21;4.20;99.90
47626;DHT22;33342;45.574;9.252;2023-02-11T07:03:49;4.20;99.90
47626;DHT22;33342;45.574;9.252;2023-02-11T07:06:18;4.20;99.90
47626;DHT22;33342;45.574;9.252;2023-02-11T07:08:46;4.20;99.90
47626;DHT22;33342;45.574;9.252;2023-02-11T07:13:42;4.20;99.90
47626;DHT22;33342;45.574;9.252;2023-02-11T07:16:11;4.30;99.90
47626;DHT22;33342;45.574;9.252;2023-02-11T07:18:40;4.30;99.90
47626;DHT22;33342;45.574;9.252;2023-02-11T07:21:10;4.30;99.90
47626;DHT22;33342;45.574;9.252;2023-02-11T07:23:38;4.30;99.90
47626;DHT22;33342;45.574;9.252;2023-02-11T07:26:11;4.40;99.90
47626;DHT22;33342;45.574;9.252;2023-02-11T07:28:39;4.40;99.90
47626;DHT22;33342;45.574;9.252;2023-02-11T07:31:15;4.40;99.90
47626;DHT22;33342;45.574;9.252;2023-02-11T07:33:44;4.40;99.90
47626;DHT22;33342;45.574;9.252;2023-02-11T07:36:15;4.40;99.90
47626;DHT22;33342;45.574;9.252;2023-02-11T07:38:42;4.50;99.90
47626;DHT22;33342;45.574;9.252;2023-02-11T07:41:15;4.50;99.90
47626;DHT22;33342;45.574;9.252;2023-02-11T07:43:44;4.50;99.90
47626;DHT22;33342;45.574;9.252;2023-02-11T07:46:14;4.50;99.90
47626;DHT22;33342;45.574;9.252;2023-02-11T07:48:41;4.60;99.90
47626;DHT22;33342;45.574;9.252;2023-02-11T07:51:34;4.60;99.90
47626;DHT22;33342;45.574;9.252;2023-02-11T07:54:01;4.60;99.90
47626;DHT22;33342;45.574;9.252;2023-02-11T07:56:28;4.70;99.90
47626;DHT22;33342;45.574;9.252;2023-02-11T07:58:59;4.70;99.90
47626;DHT22;33342;45.574;9.252;2023-02-11T08:01:27;4.70;99.90
47626;DHT22;33342;45.574;9.252;2023-02-11T08:03:55;4.70;99.90
47626;DHT22;33342;45.574;9.252;2023-02-11T08:06:25;4.80;99.90
47626;DHT22;33342;45.574;9.252;2023-02-11T08:08:52;4.80;99.90
47626;DHT22;33342;45.574;9.252;2023-02-11T08:11:24;4.80;99.90
47626;DHT22;33342;45.574;9.252;2023-02-11T08:13:52;4.80;99.90
47626;DHT22;33342;45.574;9.252;2023-02-11T08:16:22;4.80;99.90
47626;DHT22;33342;45.574;9.252;2023-02-11T08:18:51;4.90;99.90
47626;DHT22;33342;45.574;9.252;2023-02-11T08:21:18;4.90;99.90
47626;DHT22;33342;45.574;9.252;2023-02-11T08:23:46;4.90;99.90
47626;DHT22;33342;45.574;9.252;2023-02-11T08:26:22;4.90;99.90
47626;DHT22;33342;45.574;9.252;2023-02-11T08:28:50;4.90;99.90
47626;DHT22;33342;45.574;9.252;2023-02-11T08:31:21;4.90;99.90
47626;DHT22;33342;45.574;9.252;2023-02-11T08:33:48;5.00;99.90
47626;DHT22;33342;45.574;9.252;2023-02-11T08:36:21;5.00;99.90
47626;DHT22;33342;45.574;9.252;2023-02-11T08:38:49;5.00;99.90
47626;DHT22;33342;45.574;9.252;2023-02-11T08:41:16;5.10;99.90
47626;DHT22;33342;45.574;9.252;2023-02-11T08:43:44;5.10;99.90
47626;DHT22;33342;45.574;9.252;2023-02-11T08:46:16;5.20;99.90
47626;DHT22;33342;45.574;9.252;2023-02-11T08:48:45;5.20;99.90
47626;DHT22;33342;45.574;9.252;2023-02-11T08:51:15;5.20;99.90
47626;DHT22;33342;45.574;9.252;2023-02-11T08:53:43;5.30;99.90
47626;DHT22;33342;45.574;9.252;2023-02-11T08:56:14;5.40;99.90
47626;DHT22;33342;45.574;9.252;2023-02-11T08:58:41;5.40;99.90
47626;DHT22;33342;45.574;9.252;2023-02-11T09:03:43;5.50;99.90
47626;DHT22;33342;45.574;9.252;2023-02-11T09:06:11;5.50;99.90
47626;DHT22;33342;45.574;9.252;2023-02-11T09:08:41;5.50;99.90
47626;DHT22;33342;45.574;9.252;2023-02-11T09:11:12;5.60;99.90
47626;DHT22;33342;45.574;9.252;2023-02-11T09:13:41;5.70;99.90
47626;DHT22;33342;45.574;9.252;2023-02-11T09:16:22;5.70;99.90
47626;DHT22;33342;45.574;9.252;2023-02-11T09:18:49;5.80;99.90
47626;DHT22;33342;45.574;9.252;2023-02-11T09:21:17;5.90;99.90
47626;DHT22;33342;45.574;9.252;2023-02-11T09:23:45;5.90;99.90
47626;DHT22;33342;45.574;9.252;2023-02-11T09:26:18;6.00;99.90
47626;DHT22;33342;45.574;9.252;2023-02-11T09:28:45;6.00;99.90
47626;DHT22;33342;45.574;9.252;2023-02-11T09:31:15;6.10;99.90
47626;DHT22;33342;45.574;9.252;2023-02-11T09:33:44;6.20;99.90
47626;DHT22;33342;45.574;9.252;2023-02-11T09:36:18;6.30;99.90
47626;DHT22;33342;45.574;9.252;2023-02-11T09:38:45;6.30;99.90
47626;DHT22;33342;45.574;9.252;2023-02-11T09:43:58;6.40;99.90
47626;DHT22;33342;45.574;9.252;2023-02-11T09:46:30;6.50;99.90
47626;DHT22;33342;45.574;9.252;2023-02-11T09:48:58;6.60;99.90
47626;DHT22;33342;45.574;9.252;2023-02-11T09:51:39;6.60;99.90
47626;DHT22;33342;45.574;9.252;2023-02-11T09:54:18;6.60;99.90
47626;DHT22;33342;45.574;9.252;2023-02-11T09:56:47;6.70;99.90
47626;DHT22;33342;45.574;9.252;2023-02-11T09:59:15;6.70;99.90
47626;DHT22;33342;45.574;9.252;2023-02-11T10:01:49;6.80;99.90
47626;DHT22;33342;45.574;9.252;2023-02-11T10:06:49;6.90;99.90
47626;DHT22;33342;45.574;9.252;2023-02-11T10:15:13;6.90;99.90
47626;DHT22;33342;45.574;9.252;2023-02-11T10:22:56;7.00;99.90
47626;DHT22;33342;45.574;9.252;2023-02-11T10:28:14;7.10;99.90
47626;DHT22;33342;45.574;9.252;2023-02-11T10:30:58;7.20;99.90
47626;DHT22;33342;45.574;9.252;2023-02-11T10:36:05;7.30;99.90
47626;DHT22;33342;45.574;9.252;2023-02-11T10:38:33;7.30;99.90
47626;DHT22;33342;45.574;9.252;2023-02-11T10:41:02;7.30;99.90
47626;DHT22;33342;45.574;9.252;2023-02-11T10:43:30;7.40;99.90
47626;DHT22;33342;45.574;9.252;2023-02-11T10:45:59;7.40;99.90
47626;DHT22;33342;45.574;9.252;2023-02-11T10:56:33;7.70;99.90
47626;DHT22;33342;45.574;9.252;2023-02-11T10:59:13;7.70;99.90
47626;DHT22;33342;45.574;9.252;2023-02-11T11:01:51;7.80;99.90
47626;DHT22;33342;45.574;9.252;2023-02-11T11:04:41;7.90;99.90
47626;DHT22;33342;45.574;9.252;2023-02-11T11:07:28;8.00;99.90
47626;DHT22;33342;45.574;9.252;2023-02-11T11:10:24;8.00;99.90
47626;DHT22;33342;45.574;9.252;2023-02-11T11:12:52;8.10;99.90
47626;DHT22;33342;45.574;9.252;2023-02-11T11:15:27;8.20;99.90
47626;DHT22;33342;45.574;9.252;2023-02-11T11:20:58;8.30;99.90
47626;DHT22;33342;45.574;9.252;2023-02-11T11:23:27;8.30;99.90
47626;DHT22;33342;45.574;9.252;2023-02-11T11:26:11;8.30;99.90
47626;DHT22;33342;45.574;9.252;2023-02-11T11:29:00;8.30;99.90
47626;DHT22;33342;45.574;9.252;2023-02-11T11:34:26;8.30;99.90
47626;DHT22;33342;45.574;9.252;2023-02-11T11:36:55;8.30;99.90
47626;DHT22;33342;45.574;9.252;2023-02-11T11:39:30;8.40;99.90
47626;DHT22;33342;45.574;9.252;2023-02-11T11:42:00;8.30;99.90
47626;DHT22;33342;45.574;9.252;2023-02-11T11:47:26;8.40;99.90
47626;DHT22;33342;45.574;9.252;2023-02-11T11:50:08;8.40;99.90
47626;DHT22;33342;45.574;9.252;2023-02-11T11:52:45;8.40;99.90
47626;DHT22;33342;45.574;9.252;2023-02-11T11:57:47;8.40;99.90
47626;DHT22;33342;45.574;9.252;2023-02-11T12:00:18;8.40;99.90
47626;DHT22;33342;45.574;9.252;2023-02-11T12:06:07;8.40;99.90
47626;DHT22;33342;45.574;9.252;2023-02-11T12:11:58;8.50;99.90
47626;DHT22;33342;45.574;9.252;2023-02-11T12:14:39;8.50;99.90
47626;DHT22;33342;45.574;9.252;2023-02-11T12:23:18;8.60;99.90
47626;DHT22;33342;45.574;9.252;2023-02-11T12:25:53;8.60;99.90
47626;DHT22;33342;45.574;9.252;2023-02-11T12:29:26;8.60;99.90
47626;DHT22;33342;45.574;9.252;2023-02-11T12:40:25;8.70;99.90
47626;DHT22;33342;45.574;9.252;2023-02-11T12:57:09;9.00;99.90
47626;DHT22;33342;45.574;9.252;2023-02-11T13:05:36;9.20;99.90
47626;DHT22;33342;45.574;9.252;2023-02-11T13:08:15;9.20;99.90
47626;DHT22;33342;45.574;9.252;2023-02-11T13:10:46;9.30;99.90
47626;DHT22;33342;45.574;9.252;2023-02-11T13:13:21;9.30;99.90
47626;DHT22;33342;45.574;9.252;2023-02-11T13:16:00;9.30;99.90
47626;DHT22;33342;45.574;9.252;2023-02-11T13:18:55;9.40;99.90
47626;DHT22;33342;45.574;9.252;2023-02-11T13:30:25;9.70;99.90
47626;DHT22;33342;45.574;9.252;2023-02-11T13:35:31;9.80;99.90
47626;DHT22;33342;45.574;9.252;2023-02-11T13:38:00;9.80;99.90
47626;DHT22;33342;45.574;9.252;2023-02-11T13:43:05;9.90;99.90
47626;DHT22;33342;45.574;9.252;2023-02-11T13:45:41;10.00;99.90
47626;DHT22;33342;45.574;9.252;2023-02-11T13:48:29;10.10;99.90
47626;DHT22;33342;45.574;9.252;2023-02-11T13:51:00;10.30;99.90
47626;DHT22;33342;45.574;9.252;2023-02-11T13:53:28;10.70;99.90
47626;DHT22;33342;45.574;9.252;2023-02-11T13:56:11;11.20;99.90
47626;DHT22;33342;45.574;9.252;2023-02-11T13:58:49;12.00;99.90
47626;DHT22;33342;45.574;9.252;2023-02-11T14:04:33;13.20;99.90
47626;DHT22;33342;45.574;9.252;2023-02-11T14:13:26;14.50;99.90
47626;DHT22;33342;45.574;9.252;2023-02-11T14:16:07;14.90;99.90
47626;DHT22;33342;45.574;9.252;2023-02-11T14:21:11;15.50;99.90
47626;DHT22;33342;45.574;9.252;2023-02-11T14:23:39;15.60;99.90
47626;DHT22;33342;45.574;9.252;2023-02-11T14:35:17;16.10;99.90
47626;DHT22;33342;45.574;9.252;2023-02-11T14:43:34;17.20;99.90
47626;DHT22;33342;45.574;9.252;2023-02-11T14:46:03;17.60;99.90
47626;DHT22;33342;45.574;9.252;2023-02-11T14:48:33;17.90;99.90
47626;DHT22;33342;45.574;9.252;2023-02-11T14:51:18;18.00;99.90
47626;DHT22;33342;45.574;9.252;2023-02-11T14:53:49;18.10;99.90
47626;DHT22;33342;45.574;9.252;2023-02-11T14:56:26;18.10;99.90
47626;DHT22;33342;45.574;9.252;2023-02-11T14:58:54;17.80;99.90
47626;DHT22;33342;45.574;9.252;2023-02-11T15:04:02;17.00;99.90
47626;DHT22;33342;45.574;9.252;2023-02-11T15:06:37;16.30;99.90
47626;DHT22;33342;45.574;9.252;2023-02-11T15:09:17;15.80;99.90
47626;DHT22;33342;45.574;9.252;2023-02-11T15:11:46;15.40;99.90
47626;DHT22;33342;45.574;9.252;2023-02-11T15:14:28;15.00;99.90
47626;DHT22;33342;45.574;9.252;2023-02-11T15:17:00;14.80;99.90
47626;DHT22;33342;45.574;9.252;2023-02-11T15:19:49;14.80;99.90
47626;DHT22;33342;45.574;9.252;2023-02-11T15:22:20;14.90;99.90
47626;DHT22;33342;45.574;9.252;2023-02-11T15:25:08;15.10;99.90
47626;DHT22;33342;45.574;9.252;2023-02-11T15:27:56;15.40;99.90
47626;DHT22;33342;45.574;9.252;2023-02-11T15:30:31;15.50;99.90
47626;DHT22;33342;45.574;9.252;2023-02-11T15:33:22;15.70;99.90
47626;DHT22;33342;45.574;9.252;2023-02-11T15:35:51;16.00;99.90
47626;DHT22;33342;45.574;9.252;2023-02-11T15:38:18;16.20;99.90
47626;DHT22;33342;45.574;9.252;2023-02-11T15:44:27;16.30;99.90
47626;DHT22;33342;45.574;9.252;2023-02-11T15:46:54;16.10;99.90
47626;DHT22;33342;45.574;9.252;2023-02-11T15:49:22;15.90;99.90
47626;DHT22;33342;45.574;9.252;2023-02-11T15:51:51;15.70;99.90
47626;DHT22;33342;45.574;9.252;2023-02-11T15:54:22;15.40;99.90
47626;DHT22;33342;45.574;9.252;2023-02-11T15:56:58;15.30;99.90
47626;DHT22;33342;45.574;9.252;2023-02-11T15:59:34;15.40;99.90
47626;DHT22;33342;45.574;9.252;2023-02-11T16:02:31;15.50;99.90
47626;DHT22;33342;45.574;9.252;2023-02-11T16:05:03;15.30;99.90
47626;DHT22;33342;45.574;9.252;2023-02-11T16:07:43;15.00;99.90
47626;DHT22;33342;45.574;9.252;2023-02-11T16:10:29;14.70;99.90
47626;DHT22;33342;45.574;9.252;2023-02-11T16:21:04;13.50;99.90
47626;DHT22;33342;45.574;9.252;2023-02-11T16:23:37;13.30;99.90
47626;DHT22;33342;45.574;9.252;2023-02-11T16:26:11;13.10;99.90
47626;DHT22;33342;45.574;9.252;2023-02-11T16:28:46;13.00;99.90
47626;DHT22;33342;45.574;9.252;2023-02-11T16:31:13;12.80;99.90
47626;DHT22;33342;45.574;9.252;2023-02-11T16:33:40;12.70;99.90
47626;DHT22;33342;45.574;9.252;2023-02-11T16:36:12;12.50;99.90
47626;DHT22;33342;45.574;9.252;2023-02-11T16:38:39;12.40;99.90
47626;DHT22;33342;45.574;9.252;2023-02-11T16:41:06;12.30;99.90
47626;DHT22;33342;45.574;9.252;2023-02-11T16:43:34;12.20;99.90
47626;DHT22;33342;45.574;9.252;2023-02-11T16:46:01;12.10;99.90
47626;DHT22;33342;45.574;9.252;2023-02-11T16:48:30;12.00;99.90
47626;DHT22;33342;45.574;9.252;2023-02-11T16:50:58;11.90;99.90
47626;DHT22;33342;45.574;9.252;2023-02-11T16:53:25;11.80;99.90
47626;DHT22;33342;45.574;9.252;2023-02-11T16:55:53;11.70;99.90
47626;DHT22;33342;45.574;9.252;2023-02-11T16:58:20;11.60;99.90
47626;DHT22;33342;45.574;9.252;2023-02-11T17:00:47;11.60;99.90
47626;DHT22;33342;45.574;9.252;2023-02-11T17:03:20;11.50;99.90
47626;DHT22;33342;45.574;9.252;2023-02-11T17:05:49;11.40;99.90
47626;DHT22;33342;45.574;9.252;2023-02-11T17:08:24;11.30;99.90
47626;DHT22;33342;45.574;9.252;2023-02-11T17:10:51;11.30;99.90
47626;DHT22;33342;45.574;9.252;2023-02-11T17:13:18;11.20;99.90
47626;DHT22;33342;45.574;9.252;2023-02-11T17:15:46;11.20;99.90
47626;DHT22;33342;45.574;9.252;2023-02-11T17:18:13;11.10;99.90
47626;DHT22;33342;45.574;9.252;2023-02-11T17:20:40;11.10;99.90
47626;DHT22;33342;45.574;9.252;2023-02-11T17:23:08;11.00;99.90
47626;DHT22;33342;45.574;9.252;2023-02-11T17:25:35;11.00;99.90
47626;DHT22;33342;45.574;9.252;2023-02-11T17:28:04;10.90;99.90
47626;DHT22;33342;45.574;9.252;2023-02-11T17:30:31;10.90;99.90
47626;DHT22;33342;45.574;9.252;2023-02-11T17:32:58;10.90;99.90
47626;DHT22;33342;45.574;9.252;2023-02-11T17:35:25;10.80;99.90
47626;DHT22;33342;45.574;9.252;2023-02-11T17:37:52;10.80;99.90
47626;DHT22;33342;45.574;9.252;2023-02-11T17:40:19;10.80;99.90
47626;DHT22;33342;45.574;9.252;2023-02-11T17:42:46;10.80;99.90
47626;DHT22;33342;45.574;9.252;2023-02-11T17:45:13;10.70;99.90
47626;DHT22;33342;45.574;9.252;2023-02-11T17:47:41;10.70;99.90
47626;DHT22;33342;45.574;9.252;2023-02-11T17:50:08;10.70;99.90
47626;DHT22;33342;45.574;9.252;2023-02-11T17:52:35;10.70;99.90
47626;DHT22;33342;45.574;9.252;2023-02-11T17:55:04;10.60;99.90
47626;DHT22;33342;45.574;9.252;2023-02-11T17:57:32;10.50;99.90
47626;DHT22;33342;45.574;9.252;2023-02-11T17:59:59;10.50;99.90
47626;DHT22;33342;45.574;9.252;2023-02-11T18:02:26;10.50;99.90
47626;DHT22;33342;45.574;9.252;2023-02-11T18:04:53;10.50;99.90
47626;DHT22;33342;45.574;9.252;2023-02-11T18:07:24;10.40;99.90
47626;DHT22;33342;45.574;9.252;2023-02-11T18:09:51;10.40;99.90
47626;DHT22;33342;45.574;9.252;2023-02-11T18:12:19;10.40;99.90
47626;DHT22;33342;45.574;9.252;2023-02-11T18:14:52;10.30;99.90
47626;DHT22;33342;45.574;9.252;2023-02-11T18:17:24;10.30;99.90
47626;DHT22;33342;45.574;9.252;2023-02-11T18:19:54;10.30;99.90
47626;DHT22;33342;45.574;9.252;2023-02-11T18:22:23;10.30;99.90
47626;DHT22;33342;45.574;9.252;2023-02-11T18:24:52;10.20;99.90
47626;DHT22;33342;45.574;9.252;2023-02-11T18:27:20;10.20;99.90
47626;DHT22;33342;45.574;9.252;2023-02-11T18:29:47;10.20;99.90
47626;DHT22;33342;45.574;9.252;2023-02-11T18:32:14;10.10;99.90
47626;DHT22;33342;45.574;9.252;2023-02-11T18:34:41;10.10;99.90
47626;DHT22;33342;45.574;9.252;2023-02-11T18:37:08;10.00;99.90
47626;DHT22;33342;45.574;9.252;2023-02-11T18:39:36;10.00;99.90
47626;DHT22;33342;45.574;9.252;2023-02-11T18:42:03;9.90;99.90
47626;DHT22;33342;45.574;9.252;2023-02-11T18:44:30;9.90;99.90
47626;DHT22;33342;45.574;9.252;2023-02-11T18:46:57;9.80;99.90
47626;DHT22;33342;45.574;9.252;2023-02-11T18:49:24;9.80;99.90
47626;DHT22;33342;45.574;9.252;2023-02-11T18:51:51;9.80;99.90
47626;DHT22;33342;45.574;9.252;2023-02-11T18:54:37;9.80;99.90
47626;DHT22;33342;45.574;9.252;2023-02-11T18:57:04;9.70;99.90
47626;DHT22;33342;45.574;9.252;2023-02-11T18:59:31;9.70;99.90
47626;DHT22;33342;45.574;9.252;2023-02-11T19:01:58;9.70;99.90